createdAt,value
2019-03-03T17:56:24.855Z,38.26
2019-03-03T17:56:35.850Z,38.09
2019-03-03T17:56:46.852Z,38.06
2019-03-03T17:56:57.882Z,38.07
2019-03-03T17:57:09.040Z,37.97
2019-03-03T17:57:19.879Z,37.87
2019-03-03T17:57:30.866Z,37.81
2019-03-03T17:57:41.939Z,37.77
2019-03-03T17:57:52.924Z,37.77
2019-03-03T17:58:03.872Z,37.72
2019-03-03T17:58:14.863Z,37.81
2019-03-03T17:58:25.855Z,37.75
2019-03-03T17:58:36.856Z,37.72
2019-03-03T17:58:47.854Z,37.65
2019-03-03T17:58:58.873Z,37.62
2019-03-03T17:59:09.872Z,37.61
2019-03-03T17:59:20.875Z,37.57
2019-03-03T17:59:32.159Z,37.61
2019-03-03T17:59:42.857Z,37.62
2019-03-03T17:59:53.874Z,37.64
2019-03-03T18:00:04.937Z,37.64
2019-03-03T18:00:15.872Z,37.6
2019-03-03T18:00:26.868Z,37.63
2019-03-03T18:00:37.861Z,37.59
2019-03-03T18:00:48.859Z,37.52
2019-03-03T18:00:59.944Z,37.47
2019-03-03T18:01:10.875Z,37.48
2019-03-03T18:01:21.944Z,37.42
2019-03-03T18:01:32.872Z,37.46
2019-03-03T18:01:43.859Z,37.44
2019-03-03T18:01:54.884Z,37.38
2019-03-03T18:02:05.880Z,37.38
2019-03-03T18:02:16.944Z,37.38
2019-03-03T18:02:27.884Z,37.31
2019-03-03T18:02:39.025Z,37.31
2019-03-03T18:02:49.876Z,37.27
2019-03-03T18:03:00.897Z,37.23
2019-03-03T18:03:11.950Z,37.21
2019-03-03T18:03:22.868Z,37.17
2019-03-03T18:03:33.868Z,37.22
2019-03-03T18:03:44.867Z,37.41
2019-03-03T18:03:55.887Z,37.36
2019-03-03T18:04:06.884Z,37.12
2019-03-03T18:04:17.880Z,37.11
2019-03-03T18:04:28.950Z,37.11
2019-03-03T18:04:39.887Z,37.13
2019-03-03T18:04:50.874Z,37.07
2019-03-03T18:05:01.952Z,37.03
2019-03-03T18:05:12.871Z,36.99
2019-03-03T18:05:23.868Z,37
2019-03-03T18:05:34.868Z,36.99
2019-03-03T18:05:45.869Z,37
2019-03-03T18:05:56.895Z,36.98
2019-03-03T18:06:07.885Z,37.01
2019-03-03T18:06:18.885Z,37.05
2019-03-03T18:06:29.888Z,37.06
2019-03-03T18:06:40.949Z,37.06
2019-03-03T18:06:51.963Z,37.01
2019-03-03T18:07:02.877Z,37
2019-03-03T18:07:13.876Z,37.02
2019-03-03T18:07:24.875Z,37.03
2019-03-03T18:07:35.871Z,36.94
2019-03-03T18:07:46.870Z,36.92
2019-03-03T18:07:57.897Z,36.91
2019-03-03T18:08:08.893Z,36.87
2019-03-03T18:08:19.886Z,36.88
2019-03-03T18:08:30.887Z,36.91
2019-03-03T18:08:41.964Z,36.92
2019-03-03T18:08:52.943Z,36.92
2019-03-03T18:09:03.890Z,36.9
2019-03-03T18:09:14.873Z,36.88
2019-03-03T18:09:25.875Z,36.87
2019-03-03T18:09:36.874Z,36.86
2019-03-03T18:09:47.892Z,36.89
2019-03-03T18:09:58.902Z,36.91
2019-03-03T18:10:09.893Z,36.88
2019-03-03T18:10:20.889Z,36.82
2019-03-03T18:10:31.962Z,36.86
2019-03-03T18:10:42.943Z,36.86
2019-03-03T18:10:53.889Z,36.81
2019-03-03T18:11:04.882Z,36.81
2019-03-03T18:11:15.880Z,36.8
2019-03-03T18:11:26.874Z,36.79
2019-03-03T18:11:37.881Z,36.79
2019-03-03T18:11:48.891Z,36.79
2019-03-03T18:11:59.891Z,36.77
2019-03-03T18:12:10.909Z,36.79
2019-03-03T18:12:21.964Z,36.82
2019-03-03T18:12:32.881Z,36.83
2019-03-03T18:12:43.896Z,36.79
2019-03-03T18:12:54.956Z,36.79
2019-03-03T18:13:06.159Z,36.79
2019-03-03T18:13:16.886Z,36.78
2019-03-03T18:13:27.880Z,36.78
2019-03-03T18:13:38.879Z,36.72
2019-03-03T18:13:49.893Z,36.71
2019-03-03T18:14:00.917Z,36.69
2019-03-03T18:14:11.968Z,36.71
2019-03-03T18:14:22.878Z,36.68
2019-03-03T18:14:33.882Z,36.68
2019-03-03T18:14:44.897Z,36.68
2019-03-03T18:14:55.897Z,36.68
2019-03-03T18:15:06.957Z,36.68
2019-03-03T18:15:17.899Z,36.72
2019-03-03T18:15:28.893Z,36.74
2019-03-03T18:15:39.880Z,36.66
2019-03-03T18:15:50.897Z,36.64
2019-03-03T18:16:01.969Z,36.66
2019-03-03T18:16:12.882Z,36.67
2019-03-03T18:16:23.882Z,36.67
2019-03-03T18:16:34.884Z,36.64
2019-03-03T18:16:45.904Z,36.67
2019-03-03T18:16:56.901Z,36.7
2019-03-03T18:17:07.898Z,36.7
2019-03-03T18:17:18.968Z,36.7
2019-03-03T18:17:29.903Z,36.71
2019-03-03T18:17:40.898Z,36.7
2019-03-03T18:17:51.971Z,36.68
2019-03-03T18:18:02.886Z,36.67
2019-03-03T18:18:13.886Z,36.7
2019-03-03T18:18:24.891Z,36.7
2019-03-03T18:18:35.888Z,36.69
2019-03-03T18:18:46.901Z,36.71
2019-03-03T18:18:57.905Z,36.69
2019-03-03T18:19:08.904Z,36.69
2019-03-03T18:19:19.906Z,36.74
2019-03-03T18:19:30.976Z,36.74
2019-03-03T18:19:41.972Z,36.69
2019-03-03T18:19:52.891Z,36.68
2019-03-03T18:20:03.888Z,36.66
2019-03-03T18:20:14.892Z,36.67
2019-03-03T18:20:25.887Z,36.66
2019-03-03T18:20:36.888Z,36.63
2019-03-03T18:20:47.904Z,36.64
2019-03-03T18:20:58.908Z,36.61
2019-03-03T18:21:09.911Z,36.59
2019-03-03T18:21:20.903Z,36.56
2019-03-03T18:21:32.036Z,36.56
2019-03-03T18:21:42.888Z,36.58
2019-03-03T18:21:53.899Z,36.6
2019-03-03T18:22:04.892Z,36.63
2019-03-03T18:22:15.894Z,36.56
2019-03-03T18:22:26.972Z,36.55
2019-03-03T18:22:37.905Z,36.51
2019-03-03T18:22:48.907Z,36.51
2019-03-03T18:22:59.907Z,36.52
2019-03-03T18:23:10.912Z,36.55
2019-03-03T18:23:21.973Z,36.51
2019-03-03T18:23:33.462Z,36.51
2019-03-03T18:23:43.909Z,36.47
2019-03-03T18:23:54.898Z,36.48
2019-03-03T18:24:05.893Z,36.47
2019-03-03T18:24:16.892Z,36.48
2019-03-03T18:24:27.892Z,36.45
2019-03-03T18:24:38.907Z,36.44
2019-03-03T18:24:49.907Z,36.45
2019-03-03T18:25:00.926Z,36.41
2019-03-03T18:25:11.980Z,36.43
2019-03-03T18:25:22.901Z,36.4
2019-03-03T18:25:33.911Z,36.39
2019-03-03T18:25:44.973Z,36.39
2019-03-03T18:25:55.915Z,36.39
2019-03-03T18:26:06.904Z,36.36
2019-03-03T18:26:17.896Z,36.36
2019-03-03T18:26:28.934Z,36.37
2019-03-03T18:26:39.913Z,36.33
2019-03-03T18:26:50.912Z,36.33
2019-03-03T18:27:01.994Z,36.3
2019-03-03T18:27:12.901Z,36.34
2019-03-03T18:27:23.900Z,36.34
2019-03-03T18:27:34.917Z,36.32
2019-03-03T18:27:45.983Z,36.32
2019-03-03T18:27:56.912Z,36.31
2019-03-03T18:28:07.907Z,36.34
2019-03-03T18:28:18.900Z,36.34
2019-03-03T18:28:29.903Z,36.35
2019-03-03T18:28:40.917Z,36.37
2019-03-03T18:28:51.983Z,36.36
2019-03-03T18:29:02.902Z,36.35
2019-03-03T18:29:13.906Z,36.32
2019-03-03T18:29:24.943Z,36.37
2019-03-03T18:29:35.917Z,36.39
2019-03-03T18:29:46.921Z,36.39
2019-03-03T18:29:57.987Z,36.39
2019-03-03T18:30:08.919Z,36.43
2019-03-03T18:30:19.909Z,36.43
2019-03-03T18:30:30.905Z,36.41
2019-03-03T18:30:41.993Z,36.41
2019-03-03T18:30:52.900Z,36.43
2019-03-03T18:31:03.913Z,36.4
2019-03-03T18:31:14.904Z,36.39
2019-03-03T18:31:25.903Z,36.37
2019-03-03T18:31:36.919Z,36.39
2019-03-03T18:31:47.916Z,36.37
2019-03-03T18:31:58.921Z,36.41
2019-03-03T18:32:09.983Z,36.41
2019-03-03T18:32:20.935Z,36.42
2019-03-03T18:32:31.916Z,36.51
2019-03-03T18:32:42.908Z,36.46
2019-03-03T18:32:53.907Z,36.5
2019-03-03T18:33:05.063Z,36.5
2019-03-03T18:33:15.922Z,36.55
2019-03-03T18:33:26.908Z,36.58
2019-03-03T18:33:37.923Z,36.73
2019-03-03T18:33:48.924Z,36.89
2019-03-03T18:34:00.178Z,36.89
2019-03-03T18:34:10.926Z,36.83
2019-03-03T18:34:21.931Z,36.85
2019-03-03T18:34:32.910Z,36.91
2019-03-03T18:34:43.911Z,36.86
2019-03-03T18:34:54.907Z,36.83
2019-03-03T18:35:05.907Z,36.76
2019-03-03T18:35:16.928Z,36.71
2019-03-03T18:35:27.928Z,36.67
2019-03-03T18:35:38.923Z,36.69
2019-03-03T18:35:49.994Z,36.69
2019-03-03T18:36:00.943Z,36.65
2019-03-03T18:36:11.917Z,36.68
2019-03-03T18:36:22.914Z,36.69
2019-03-03T18:36:34.094Z,36.68
2019-03-03T18:36:44.912Z,36.71
2019-03-03T18:36:55.909Z,36.74
2019-03-03T18:37:06.926Z,36.7
2019-03-03T18:37:17.928Z,36.68
2019-03-03T18:37:28.927Z,36.69
2019-03-03T18:37:39.930Z,36.69
2019-03-03T18:37:50.927Z,36.73
2019-03-03T18:38:01.998Z,36.77
2019-03-03T18:38:12.928Z,36.77
2019-03-03T18:38:23.912Z,36.77
2019-03-03T18:38:34.916Z,36.81
2019-03-03T18:38:45.914Z,36.78
2019-03-03T18:38:56.936Z,36.77
2019-03-03T18:39:07.933Z,36.8
2019-03-03T18:39:18.936Z,36.8
2019-03-03T18:39:30.009Z,36.8
2019-03-03T18:39:40.933Z,36.76
2019-03-03T18:39:51.926Z,36.76
2019-03-03T18:40:02.919Z,36.76
2019-03-03T18:40:13.922Z,36.77
2019-03-03T18:40:24.916Z,36.79
2019-03-03T18:40:35.915Z,36.79
2019-03-03T18:40:46.936Z,36.8
2019-03-03T18:40:57.936Z,36.75
2019-03-03T18:41:08.931Z,36.76
2019-03-03T18:41:19.932Z,36.77
2019-03-03T18:41:31.001Z,36.77
2019-03-03T18:41:42.011Z,36.79
2019-03-03T18:41:52.928Z,36.78
2019-03-03T18:42:04.012Z,36.78
2019-03-03T18:42:14.922Z,36.71
2019-03-03T18:42:25.917Z,36.65
2019-03-03T18:42:36.921Z,36.62
2019-03-03T18:42:47.935Z,36.66
2019-03-03T18:42:58.936Z,36.67
2019-03-03T18:43:09.936Z,36.69
2019-03-03T18:43:21.022Z,36.69
2019-03-03T18:43:32.012Z,36.73
2019-03-03T18:43:42.923Z,36.7
2019-03-03T18:43:53.920Z,36.66
2019-03-03T18:44:04.926Z,36.66
2019-03-03T18:44:15.926Z,36.64
2019-03-03T18:44:26.921Z,36.64
2019-03-03T18:44:37.938Z,36.66
2019-03-03T18:44:48.942Z,36.63
2019-03-03T18:44:59.943Z,36.65
2019-03-03T18:45:10.938Z,36.63
2019-03-03T18:45:22.081Z,36.63
2019-03-03T18:45:32.950Z,36.62
2019-03-03T18:45:43.929Z,36.6
2019-03-03T18:45:54.926Z,36.66
2019-03-03T18:46:05.927Z,36.67
2019-03-03T18:46:16.926Z,36.65
2019-03-03T18:46:27.925Z,36.67
2019-03-03T18:46:38.945Z,36.67
2019-03-03T18:46:49.949Z,36.69
2019-03-03T18:47:00.960Z,36.74
2019-03-03T18:47:12.015Z,36.74
2019-03-03T18:47:22.930Z,36.73
2019-03-03T18:47:33.994Z,36.73
2019-03-03T18:47:44.944Z,36.69
2019-03-03T18:47:55.934Z,36.63
2019-03-03T18:48:06.932Z,36.64
2019-03-03T18:48:17.929Z,36.61
2019-03-03T18:48:28.934Z,36.62
2019-03-03T18:48:39.949Z,36.61
2019-03-03T18:48:50.945Z,36.62
2019-03-03T18:49:02.019Z,36.63
2019-03-03T18:49:12.929Z,36.62
2019-03-03T18:49:23.947Z,36.66
2019-03-03T18:49:35.013Z,36.66
2019-03-03T18:49:45.949Z,36.62
2019-03-03T18:49:56.939Z,36.59
2019-03-03T18:50:07.931Z,36.58
2019-03-03T18:50:18.935Z,36.64
2019-03-03T18:50:29.943Z,36.67
2019-03-03T18:50:40.944Z,36.69
2019-03-03T18:50:52.016Z,36.67
2019-03-03T18:51:02.933Z,36.67
2019-03-03T18:51:13.936Z,36.68
2019-03-03T18:51:24.949Z,36.69
2019-03-03T18:51:35.959Z,36.62
2019-03-03T18:51:47.016Z,36.62
2019-03-03T18:51:57.948Z,36.57
2019-03-03T18:52:08.948Z,36.49
2019-03-03T18:52:19.934Z,36.47
2019-03-03T18:52:30.951Z,36.45
2019-03-03T18:52:42.022Z,36.46
2019-03-03T18:52:52.934Z,36.44
2019-03-03T18:53:03.933Z,36.44
2019-03-03T18:53:14.939Z,36.43
2019-03-03T18:53:25.948Z,36.51
2019-03-03T18:53:36.951Z,36.57
2019-03-03T18:53:47.956Z,36.58
2019-03-03T18:53:59.014Z,36.58
2019-03-03T18:54:09.949Z,36.57
2019-03-03T18:54:20.943Z,36.55
2019-03-03T18:54:32.021Z,36.54
2019-03-03T18:54:42.936Z,36.51
2019-03-03T18:54:53.936Z,36.51
2019-03-03T18:55:04.943Z,36.48
2019-03-03T18:55:15.938Z,36.51
2019-03-03T18:55:26.951Z,36.53
2019-03-03T18:55:37.954Z,36.56
2019-03-03T18:55:48.955Z,36.56
2019-03-03T18:56:00.021Z,36.56
2019-03-03T18:56:11.101Z,36.58
2019-03-03T18:56:21.947Z,36.51
2019-03-03T18:56:32.944Z,36.47
2019-03-03T18:56:43.940Z,36.4
2019-03-03T18:56:54.949Z,36.44
2019-03-03T18:57:05.941Z,36.44
2019-03-03T18:57:16.958Z,36.44
2019-03-03T18:57:27.955Z,36.44
2019-03-03T18:57:38.956Z,36.45
2019-03-03T18:57:50.024Z,36.45
2019-03-03T18:58:00.973Z,36.45
2019-03-03T18:58:11.959Z,36.44
2019-03-03T18:58:22.943Z,36.43
2019-03-03T18:58:34.312Z,36.47
2019-03-03T18:58:44.942Z,36.45
2019-03-03T18:58:55.944Z,36.48
2019-03-03T18:59:06.943Z,36.48
2019-03-03T18:59:17.972Z,36.47
2019-03-03T18:59:28.957Z,36.43
2019-03-03T18:59:39.958Z,36.44
2019-03-03T18:59:50.959Z,36.45
2019-03-03T19:00:02.037Z,36.45
2019-03-03T19:00:12.945Z,36.44
2019-03-03T19:00:23.971Z,36.45
2019-03-03T19:00:34.950Z,36.51
2019-03-03T19:00:45.945Z,36.53
2019-03-03T19:00:56.944Z,36.55
2019-03-03T19:01:07.965Z,36.56
2019-03-03T19:01:18.962Z,36.52
2019-03-03T19:01:29.961Z,36.48
2019-03-03T19:01:41.029Z,36.48
2019-03-03T19:01:52.026Z,36.49
2019-03-03T19:02:02.954Z,36.46
2019-03-03T19:02:13.945Z,36.42
2019-03-03T19:02:24.940Z,36.42
2019-03-03T19:02:35.941Z,36.43
2019-03-03T19:02:46.943Z,36.43
2019-03-03T19:02:57.960Z,36.4
2019-03-03T19:03:08.957Z,36.42
2019-03-03T19:03:19.966Z,36.45
2019-03-03T19:03:30.958Z,36.44
2019-03-03T19:03:42.029Z,36.43
2019-03-03T19:03:53.010Z,36.43
2019-03-03T19:04:03.958Z,36.43
2019-03-03T19:04:14.953Z,36.47
2019-03-03T19:04:25.944Z,36.51
2019-03-03T19:04:37.246Z,36.49
2019-03-03T19:04:47.943Z,36.48
2019-03-03T19:04:58.966Z,36.47
2019-03-03T19:05:09.960Z,36.47
2019-03-03T19:05:20.963Z,36.46
2019-03-03T19:05:32.035Z,36.46
2019-03-03T19:05:43.015Z,36.46
2019-03-03T19:05:53.965Z,36.43
2019-03-03T19:06:04.954Z,36.43
2019-03-03T19:06:15.953Z,36.45
2019-03-03T19:06:26.949Z,36.48
2019-03-03T19:06:37.952Z,36.49
2019-03-03T19:06:48.968Z,36.5
2019-03-03T19:06:59.965Z,36.5
2019-03-03T19:07:10.964Z,36.46
2019-03-03T19:07:22.036Z,36.48
2019-03-03T19:07:33.645Z,36.44
2019-03-03T19:07:44.021Z,36.44
2019-03-03T19:07:54.965Z,36.47
2019-03-03T19:08:05.963Z,36.52
2019-03-03T19:08:16.961Z,36.51
2019-03-03T19:08:27.951Z,36.52
2019-03-03T19:08:38.949Z,36.49
2019-03-03T19:08:49.973Z,36.53
2019-03-03T19:09:00.989Z,36.56
2019-03-03T19:09:12.033Z,36.58
2019-03-03T19:09:22.956Z,36.58
2019-03-03T19:09:33.955Z,36.6
2019-03-03T19:09:44.971Z,36.63
2019-03-03T19:09:56.034Z,36.63
2019-03-03T19:10:06.969Z,36.63
2019-03-03T19:10:17.962Z,36.6
2019-03-03T19:10:28.954Z,36.62
2019-03-03T19:10:39.957Z,36.6
2019-03-03T19:10:50.970Z,36.59
2019-03-03T19:11:02.045Z,36.53
2019-03-03T19:11:12.953Z,36.48
2019-03-03T19:11:23.961Z,36.46
2019-03-03T19:11:34.964Z,36.41
2019-03-03T19:11:45.974Z,36.38
2019-03-03T19:11:56.970Z,36.38
2019-03-03T19:12:08.038Z,36.38
2019-03-03T19:12:18.977Z,36.34
2019-03-03T19:12:29.965Z,36.34
2019-03-03T19:12:40.957Z,36.34
2019-03-03T19:12:52.048Z,36.36
2019-03-03T19:13:02.956Z,36.37
2019-03-03T19:13:13.957Z,36.37
2019-03-03T19:13:24.957Z,36.39
2019-03-03T19:13:35.962Z,36.46
2019-03-03T19:13:46.976Z,36.46
2019-03-03T19:13:57.977Z,36.49
2019-03-03T19:14:08.975Z,36.49
2019-03-03T19:14:20.037Z,36.49
2019-03-03T19:14:30.975Z,36.49
2019-03-03T19:14:41.968Z,36.47
2019-03-03T19:14:52.961Z,36.43
2019-03-03T19:15:03.962Z,36.41
2019-03-03T19:15:14.959Z,36.42
2019-03-03T19:15:25.963Z,36.38
2019-03-03T19:15:36.978Z,36.37
2019-03-03T19:15:47.982Z,36.38
2019-03-03T19:15:58.991Z,36.36
2019-03-03T19:16:09.986Z,36.36
2019-03-03T19:16:21.043Z,36.36
2019-03-03T19:16:32.051Z,36.38
2019-03-03T19:16:42.972Z,36.39
2019-03-03T19:16:53.963Z,36.42
2019-03-03T19:17:04.965Z,36.45
2019-03-03T19:17:16.001Z,36.38
2019-03-03T19:17:26.963Z,36.35
2019-03-03T19:17:37.988Z,36.34
2019-03-03T19:17:48.980Z,36.3
2019-03-03T19:17:59.985Z,36.32
2019-03-03T19:18:10.981Z,36.29
2019-03-03T19:18:22.054Z,36.3
2019-03-03T19:18:32.968Z,36.3
2019-03-03T19:18:43.976Z,36.25
2019-03-03T19:18:54.965Z,36.22
2019-03-03T19:19:05.969Z,36.23
2019-03-03T19:19:16.967Z,36.24
2019-03-03T19:19:27.968Z,36.21
2019-03-03T19:19:38.986Z,36.19
2019-03-03T19:19:49.986Z,36.24
2019-03-03T19:20:01.001Z,36.25
2019-03-03T19:20:12.055Z,36.29
2019-03-03T19:20:23.040Z,36.29
2019-03-03T19:20:33.988Z,36.33
2019-03-03T19:20:44.971Z,36.34
2019-03-03T19:20:55.967Z,36.3
2019-03-03T19:21:06.971Z,36.28
2019-03-03T19:21:17.993Z,36.28
2019-03-03T19:21:28.989Z,36.23
2019-03-03T19:21:39.988Z,36.21
2019-03-03T19:21:50.988Z,36.22
2019-03-03T19:22:02.059Z,36.29
2019-03-03T19:22:12.970Z,36.3
2019-03-03T19:22:24.042Z,36.3
2019-03-03T19:22:35.425Z,36.35
2019-03-03T19:22:45.985Z,36.33
2019-03-03T19:22:56.973Z,36.34
2019-03-03T19:23:07.974Z,36.3
2019-03-03T19:23:18.971Z,36.3
2019-03-03T19:23:29.985Z,36.35
2019-03-03T19:23:40.990Z,36.34
2019-03-03T19:23:52.057Z,36.3
2019-03-03T19:24:02.976Z,36.29
2019-03-03T19:24:13.974Z,36.29
2019-03-03T19:24:24.989Z,36.26
2019-03-03T19:24:36.057Z,36.26
2019-03-03T19:24:46.991Z,36.23
2019-03-03T19:24:58.048Z,36.3
2019-03-03T19:25:09.011Z,36.29
2019-03-03T19:25:19.979Z,36.3
2019-03-03T19:25:30.990Z,36.35
2019-03-03T19:25:42.062Z,36.38
2019-03-03T19:25:52.979Z,36.37
2019-03-03T19:26:03.975Z,36.37
2019-03-03T19:26:14.976Z,36.3
2019-03-03T19:26:26.049Z,36.29
2019-03-03T19:26:36.998Z,36.27
2019-03-03T19:26:48.053Z,36.27
2019-03-03T19:26:58.992Z,36.27
2019-03-03T19:27:09.987Z,36.28
2019-03-03T19:27:20.983Z,36.28
2019-03-03T19:27:32.065Z,36.27
2019-03-03T19:27:42.978Z,36.28
2019-03-03T19:27:53.981Z,36.3
2019-03-03T19:28:04.978Z,36.29
2019-03-03T19:28:15.977Z,36.31
2019-03-03T19:28:26.999Z,36.35
2019-03-03T19:28:37.995Z,36.35
2019-03-03T19:28:48.994Z,36.33
2019-03-03T19:29:00.107Z,36.33
2019-03-03T19:29:10.996Z,36.33
2019-03-03T19:29:22.041Z,36.31
2019-03-03T19:29:32.981Z,36.32
2019-03-03T19:29:43.983Z,36.3
2019-03-03T19:29:54.981Z,36.29
2019-03-03T19:30:06.074Z,36.28
2019-03-03T19:30:17.051Z,36.28
2019-03-03T19:30:28.000Z,36.29
2019-03-03T19:30:39.000Z,36.3
2019-03-03T19:30:50.009Z,36.29
2019-03-03T19:31:01.021Z,36.29
2019-03-03T19:31:12.139Z,36.29
2019-03-03T19:31:22.987Z,36.25
2019-03-03T19:31:33.997Z,36.29
2019-03-03T19:31:44.989Z,36.26
2019-03-03T19:31:55.989Z,36.26
2019-03-03T19:32:06.991Z,36.24
2019-03-03T19:32:17.995Z,36.26
2019-03-03T19:32:29.013Z,36.26
2019-03-03T19:32:40.016Z,36.26
2019-03-03T19:32:51.013Z,36.27
2019-03-03T19:33:02.081Z,36.28
2019-03-03T19:33:12.994Z,36.28
2019-03-03T19:33:24.004Z,36.26
2019-03-03T19:33:34.993Z,36.31
2019-03-03T19:33:45.995Z,36.3
2019-03-03T19:33:56.997Z,36.27
2019-03-03T19:34:07.992Z,36.23
2019-03-03T19:34:19.010Z,36.21
2019-03-03T19:34:30.017Z,36.25
2019-03-03T19:34:41.017Z,36.25
2019-03-03T19:34:52.087Z,36.22
2019-03-03T19:35:02.996Z,36.22
2019-03-03T19:35:14.019Z,36.17
2019-03-03T19:35:25.006Z,36.2
2019-03-03T19:35:35.996Z,36.22
2019-03-03T19:35:47.007Z,36.25
2019-03-03T19:35:58.001Z,36.24
2019-03-03T19:36:09.018Z,36.27
2019-03-03T19:36:20.015Z,36.29
2019-03-03T19:36:31.015Z,36.34
2019-03-03T19:36:42.115Z,36.37
2019-03-03T19:36:53.067Z,36.37
2019-03-03T19:37:04.015Z,36.4
2019-03-03T19:37:15.015Z,36.39
2019-03-03T19:37:26.001Z,36.42
2019-03-03T19:37:36.999Z,36.4
2019-03-03T19:37:48.008Z,36.38
2019-03-03T19:37:59.015Z,36.36
2019-03-03T19:38:10.017Z,36.35
2019-03-03T19:38:21.017Z,36.32
2019-03-03T19:38:32.089Z,36.34
2019-03-03T19:38:43.008Z,36.35
2019-03-03T19:38:54.155Z,36.35
2019-03-03T19:39:05.017Z,36.36
2019-03-03T19:39:16.014Z,36.36
2019-03-03T19:39:27.004Z,36.4
2019-03-03T19:39:38.087Z,36.41
2019-03-03T19:39:49.027Z,36.41
2019-03-03T19:40:00.025Z,36.41
2019-03-03T19:40:11.020Z,36.36
2019-03-03T19:40:22.091Z,36.34
2019-03-03T19:40:33.000Z,36.33
2019-03-03T19:40:44.075Z,36.33
2019-03-03T19:40:55.026Z,36.34
2019-03-03T19:41:06.012Z,36.35
2019-03-03T19:41:17.011Z,36.38
2019-03-03T19:41:28.008Z,36.37
2019-03-03T19:41:39.008Z,36.42
2019-03-03T19:41:50.083Z,36.42
2019-03-03T19:42:01.040Z,36.44
2019-03-03T19:42:12.094Z,36.43
2019-03-03T19:42:23.010Z,36.42
2019-03-03T19:42:34.012Z,36.41
2019-03-03T19:42:45.023Z,36.43
2019-03-03T19:42:56.090Z,36.43
2019-03-03T19:43:07.022Z,36.44
2019-03-03T19:43:18.016Z,36.43
2019-03-03T19:43:29.013Z,36.43
2019-03-03T19:43:40.010Z,36.35
2019-03-03T19:43:51.024Z,36.33
2019-03-03T19:44:02.100Z,36.32
2019-03-03T19:44:13.013Z,36.36
2019-03-03T19:44:24.010Z,36.4
2019-03-03T19:44:35.015Z,36.38
2019-03-03T19:44:46.029Z,36.4
2019-03-03T19:44:57.029Z,36.37
2019-03-03T19:45:08.089Z,36.37
2019-03-03T19:45:19.028Z,36.38
2019-03-03T19:45:30.050Z,36.42
2019-03-03T19:45:41.016Z,36.48
2019-03-03T19:45:52.098Z,36.47
2019-03-03T19:46:03.015Z,36.48
2019-03-03T19:46:14.014Z,36.54
2019-03-03T19:46:25.011Z,36.53
2019-03-03T19:46:36.015Z,36.52
2019-03-03T19:46:47.028Z,36.54
2019-03-03T19:46:58.033Z,36.56
2019-03-03T19:47:09.026Z,36.52
2019-03-03T19:47:20.094Z,36.52
2019-03-03T19:47:31.034Z,36.54
2019-03-03T19:47:42.024Z,36.5
2019-03-03T19:47:53.012Z,36.49
2019-03-03T19:48:04.012Z,36.46
2019-03-03T19:48:15.013Z,36.43
2019-03-03T19:48:26.016Z,36.4
2019-03-03T19:48:37.039Z,36.39
2019-03-03T19:48:48.029Z,36.39
2019-03-03T19:48:59.036Z,36.42
2019-03-03T19:49:10.037Z,36.41
2019-03-03T19:49:21.031Z,36.4
2019-03-03T19:49:32.166Z,36.4
2019-03-03T19:49:43.017Z,36.44
2019-03-03T19:49:54.023Z,36.44
2019-03-03T19:50:05.016Z,36.4
2019-03-03T19:50:16.019Z,36.38
2019-03-03T19:50:27.021Z,36.44
2019-03-03T19:50:38.033Z,36.43
2019-03-03T19:50:49.033Z,36.46
2019-03-03T19:51:00.033Z,36.43
2019-03-03T19:51:11.037Z,36.46
2019-03-03T19:51:22.176Z,36.46
2019-03-03T19:51:33.020Z,36.47
2019-03-03T19:51:44.029Z,36.45
2019-03-03T19:51:55.020Z,36.39
2019-03-03T19:52:06.026Z,36.34
2019-03-03T19:52:17.030Z,36.33
2019-03-03T19:52:28.022Z,36.37
2019-03-03T19:52:39.035Z,36.36
2019-03-03T19:52:50.036Z,36.37
2019-03-03T19:53:01.054Z,36.38
2019-03-03T19:53:12.114Z,36.34
2019-03-03T19:53:23.089Z,36.34
2019-03-03T19:53:34.248Z,36.36
2019-03-03T19:53:45.031Z,36.42
2019-03-03T19:53:56.026Z,36.4
2019-03-03T19:54:07.023Z,36.41
2019-03-03T19:54:18.036Z,36.41
2019-03-03T19:54:29.043Z,36.45
2019-03-03T19:54:40.066Z,36.46
2019-03-03T19:54:51.041Z,36.44
2019-03-03T19:55:02.109Z,36.43
2019-03-03T19:55:13.026Z,36.38
2019-03-03T19:55:24.097Z,36.38
2019-03-03T19:55:35.040Z,36.35
2019-03-03T19:55:46.036Z,36.36
2019-03-03T19:55:57.023Z,36.34
2019-03-03T19:56:08.036Z,36.34
2019-03-03T19:56:19.027Z,36.35
2019-03-03T19:56:30.049Z,36.34
2019-03-03T19:56:41.042Z,36.35
2019-03-03T19:56:52.114Z,36.38
2019-03-03T19:57:03.030Z,36.42
2019-03-03T19:57:14.100Z,36.42
2019-03-03T19:57:25.044Z,36.4
2019-03-03T19:57:36.039Z,36.4
2019-03-03T19:57:47.029Z,36.36
2019-03-03T19:57:58.038Z,36.39
2019-03-03T19:58:09.026Z,36.37
2019-03-03T19:58:20.044Z,36.36
2019-03-03T19:58:31.582Z,36.33
2019-03-03T19:58:42.117Z,36.37
2019-03-03T19:58:53.029Z,36.46
2019-03-03T19:59:04.038Z,36.44
2019-03-03T19:59:15.052Z,36.42
2019-03-03T19:59:26.107Z,36.42
2019-03-03T19:59:37.048Z,36.4
2019-03-03T19:59:48.041Z,36.45
2019-03-03T19:59:59.037Z,36.43
2019-03-03T20:00:10.032Z,36.44
2019-03-03T20:00:21.048Z,36.47
2019-03-03T20:00:32.401Z,36.44
2019-03-03T20:00:43.036Z,36.45
2019-03-03T20:00:54.037Z,36.46
2019-03-03T20:01:05.034Z,36.48
2019-03-03T20:01:16.050Z,36.45
2019-03-03T20:01:27.050Z,36.48
2019-03-03T20:01:38.119Z,36.48
2019-03-03T20:01:49.055Z,36.49
2019-03-03T20:02:00.044Z,36.46
2019-03-03T20:02:11.033Z,36.47
2019-03-03T20:02:22.176Z,36.51
2019-03-03T20:02:33.034Z,36.52
2019-03-03T20:02:44.030Z,36.51
2019-03-03T20:02:55.032Z,36.49
2019-03-03T20:03:06.035Z,36.46
2019-03-03T20:03:17.049Z,36.45
2019-03-03T20:03:28.049Z,36.46
2019-03-03T20:03:39.047Z,36.42
2019-03-03T20:03:50.121Z,36.42
2019-03-03T20:04:01.068Z,36.35
2019-03-03T20:04:12.044Z,36.33
2019-03-03T20:04:23.039Z,36.37
2019-03-03T20:04:34.041Z,36.37
2019-03-03T20:04:45.039Z,36.4
2019-03-03T20:04:56.036Z,36.38
2019-03-03T20:05:07.038Z,36.35
2019-03-03T20:05:18.068Z,36.42
2019-03-03T20:05:29.051Z,36.41
2019-03-03T20:05:40.052Z,36.43
2019-03-03T20:05:51.057Z,36.43
2019-03-03T20:06:02.372Z,36.43
2019-03-03T20:06:13.042Z,36.46
2019-03-03T20:06:24.068Z,36.43
2019-03-03T20:06:35.043Z,36.44
2019-03-03T20:06:46.039Z,36.4
2019-03-03T20:06:57.042Z,36.41
2019-03-03T20:07:08.055Z,36.4
2019-03-03T20:07:19.060Z,36.39
2019-03-03T20:07:30.064Z,36.36
2019-03-03T20:07:41.118Z,36.36
2019-03-03T20:07:52.130Z,36.33
2019-03-03T20:08:03.052Z,36.33
2019-03-03T20:08:14.046Z,36.38
2019-03-03T20:08:25.043Z,36.33
2019-03-03T20:08:36.042Z,36.32
2019-03-03T20:08:47.045Z,36.28
2019-03-03T20:08:58.062Z,36.3
2019-03-03T20:09:09.062Z,36.25
2019-03-03T20:09:20.064Z,36.27
2019-03-03T20:09:31.068Z,36.32
2019-03-03T20:09:42.133Z,36.37
2019-03-03T20:09:53.113Z,36.37
2019-03-03T20:10:04.061Z,36.41
2019-03-03T20:10:15.055Z,36.42
2019-03-03T20:10:26.047Z,36.41
2019-03-03T20:10:37.047Z,36.38
2019-03-03T20:10:48.052Z,36.39
2019-03-03T20:10:59.064Z,36.43
2019-03-03T20:11:10.062Z,36.37
2019-03-03T20:11:21.070Z,36.38
2019-03-03T20:11:32.146Z,36.42
2019-03-03T20:11:43.053Z,36.46
2019-03-03T20:11:54.069Z,36.48
2019-03-03T20:12:05.134Z,36.48
2019-03-03T20:12:16.066Z,36.48
2019-03-03T20:12:27.046Z,36.46
2019-03-03T20:12:38.080Z,36.49
2019-03-03T20:12:49.050Z,36.47
2019-03-03T20:13:00.068Z,36.47
2019-03-03T20:13:11.065Z,36.47
2019-03-03T20:13:22.134Z,36.49
2019-03-03T20:13:33.053Z,36.5
2019-03-03T20:13:44.049Z,36.51
2019-03-03T20:13:55.069Z,36.51
2019-03-03T20:14:06.135Z,36.51
2019-03-03T20:14:17.070Z,36.51
2019-03-03T20:14:28.066Z,36.53
2019-03-03T20:14:39.058Z,36.53
2019-03-03T20:14:50.182Z,36.51
2019-03-03T20:15:01.085Z,36.5
2019-03-03T20:15:12.142Z,36.51
2019-03-03T20:15:23.060Z,36.58
2019-03-03T20:15:34.057Z,36.53
2019-03-03T20:15:45.070Z,36.53
2019-03-03T20:15:56.137Z,36.53
2019-03-03T20:16:07.077Z,36.51
2019-03-03T20:16:18.063Z,36.47
2019-03-03T20:16:29.059Z,36.49
2019-03-03T20:16:40.056Z,36.49
2019-03-03T20:16:51.077Z,36.44
2019-03-03T20:17:02.146Z,36.43
2019-03-03T20:17:13.054Z,36.42
2019-03-03T20:17:24.057Z,36.37
2019-03-03T20:17:35.058Z,36.36
2019-03-03T20:17:46.075Z,36.36
2019-03-03T20:17:57.071Z,36.36
2019-03-03T20:18:08.142Z,36.36
2019-03-03T20:18:19.076Z,36.38
2019-03-03T20:18:30.069Z,36.4